sensor_id;sensor_type;location;lat;lon;timestamp;pressure;altitude;pressure_sealevel;temperature;humidity
6506;BME280;3286;49.858;8.768;2023-07-20T00:00:06;98995.06;;;22.37;40.27
6506;BME280;3286;49.858;8.768;2023-07-20T00:02:34;98992.28;;;22.55;39.92
6506;BME280;3286;49.858;8.768;2023-07-20T00:05:00;98993.00;;;22.51;39.66
6506;BME280;3286;49.858;8.768;2023-07-20T00:07:27;99000.31;;;22.20;39.57
6506;BME280;3286;49.858;8.768;2023-07-20T00:09:54;98997.66;;;22.32;39.64
6506;BME280;3286;49.858;8.768;2023-07-20T00:12:22;98994.47;;;22.35;40.24
6506;BME280;3286;49.858;8.768;2023-07-20T00:14:48;98997.09;;;22.53;39.19
6506;BME280;3286;49.858;8.768;2023-07-20T00:17:15;98992.63;;;22.47;39.70
6506;BME280;3286;49.858;8.768;2023-07-20T00:19:41;98994.84;;;22.26;40.01
6506;BME280;3286;49.858;8.768;2023-07-20T00:22:08;98993.59;;;21.98;40.41
6506;BME280;3286;49.858;8.768;2023-07-20T00:24:35;98994.69;;;22.09;40.15
6506;BME280;3286;49.858;8.768;2023-07-20T00:27:01;98994.56;;;22.04;41.43
6506;BME280;3286;49.858;8.768;2023-07-20T00:29:29;98992.13;;;21.72;41.29
6506;BME280;3286;49.858;8.768;2023-07-20T00:31:56;98999.16;;;22.27;40.06
6506;BME280;3286;49.858;8.768;2023-07-20T00:34:23;99002.06;;;22.14;40.40
6506;BME280;3286;49.858;8.768;2023-07-20T00:36:50;99004.91;;;21.89;41.01
6506;BME280;3286;49.858;8.768;2023-07-20T00:39:16;99002.78;;;21.79;41.23
6506;BME280;3286;49.858;8.768;2023-07-20T00:41:43;99002.22;;;21.58;41.73
6506;BME280;3286;49.858;8.768;2023-07-20T00:44:10;98998.22;;;21.30;42.55
6506;BME280;3286;49.858;8.768;2023-07-20T00:46:38;98992.47;;;21.76;41.90
6506;BME280;3286;49.858;8.768;2023-07-20T00:49:07;98994.06;;;21.95;41.07
6506;BME280;3286;49.858;8.768;2023-07-20T00:51:33;98999.94;;;22.04;40.60
6506;BME280;3286;49.858;8.768;2023-07-20T00:54:00;98998.09;;;21.55;41.86
6506;BME280;3286;49.858;8.768;2023-07-20T00:56:28;99002.13;;;21.95;40.75
6506;BME280;3286;49.858;8.768;2023-07-20T00:58:54;99003.81;;;21.78;40.88
6506;BME280;3286;49.858;8.768;2023-07-20T01:01:22;98999.75;;;21.56;41.41
6506;BME280;3286;49.858;8.768;2023-07-20T01:03:50;99000.13;;;21.60;41.93
6506;BME280;3286;49.858;8.768;2023-07-20T01:06:25;99003.00;;;21.47;41.91
6506;BME280;3286;49.858;8.768;2023-07-20T01:09:00;99002.31;;;21.70;42.11
6506;BME280;3286;49.858;8.768;2023-07-20T01:11:35;99014.19;;;21.44;43.26
6506;BME280;3286;49.858;8.768;2023-07-20T01:14:04;99006.34;;;21.91;41.76
6506;BME280;3286;49.858;8.768;2023-07-20T01:16:32;98998.31;;;21.73;42.11
6506;BME280;3286;49.858;8.768;2023-07-20T01:19:00;99001.63;;;21.87;41.61
6506;BME280;3286;49.858;8.768;2023-07-20T01:21:33;98997.06;;;21.56;41.33
6506;BME280;3286;49.858;8.768;2023-07-20T01:24:32;98995.28;;;21.50;41.76
6506;BME280;3286;49.858;8.768;2023-07-20T01:27:35;98996.72;;;21.53;41.61
6506;BME280;3286;49.858;8.768;2023-07-20T01:30:33;99003.81;;;21.78;41.96
6506;BME280;3286;49.858;8.768;2023-07-20T01:33:05;99001.28;;;21.34;42.68
6506;BME280;3286;49.858;8.768;2023-07-20T01:35:34;99001.03;;;21.54;41.42
6506;BME280;3286;49.858;8.768;2023-07-20T01:38:02;99007.31;;;21.48;42.28
6506;BME280;3286;49.858;8.768;2023-07-20T01:40:29;99005.09;;;21.26;43.82
6506;BME280;3286;49.858;8.768;2023-07-20T01:42:56;99002.88;;;21.23;43.14
6506;BME280;3286;49.858;8.768;2023-07-20T01:45:23;99004.56;;;21.17;42.82
6506;BME280;3286;49.858;8.768;2023-07-20T01:47:50;98999.44;;;21.16;43.21
6506;BME280;3286;49.858;8.768;2023-07-20T01:50:18;99003.03;;;21.09;43.32
6506;BME280;3286;49.858;8.768;2023-07-20T01:52:44;99010.25;;;21.09;43.51
6506;BME280;3286;49.858;8.768;2023-07-20T01:55:11;99007.41;;;21.04;43.10
6506;BME280;3286;49.858;8.768;2023-07-20T01:57:38;99004.22;;;20.95;43.31
6506;BME280;3286;49.858;8.768;2023-07-20T02:00:06;99011.69;;;21.11;43.76
6506;BME280;3286;49.858;8.768;2023-07-20T02:02:34;99008.63;;;21.08;43.82
6506;BME280;3286;49.858;8.768;2023-07-20T02:05:00;99010.50;;;20.63;44.88
6506;BME280;3286;49.858;8.768;2023-07-20T02:07:28;99002.97;;;20.72;44.30
6506;BME280;3286;49.858;8.768;2023-07-20T02:09:55;99006.84;;;20.83;44.09
6506;BME280;3286;49.858;8.768;2023-07-20T02:12:22;99006.50;;;20.47;44.89
6506;BME280;3286;49.858;8.768;2023-07-20T02:14:48;99008.84;;;20.88;44.71
6506;BME280;3286;49.858;8.768;2023-07-20T02:17:15;99005.28;;;20.68;45.49
6506;BME280;3286;49.858;8.768;2023-07-20T02:19:42;99004.69;;;20.66;44.67
6506;BME280;3286;49.858;8.768;2023-07-20T02:22:08;99013.28;;;20.75;44.47
6506;BME280;3286;49.858;8.768;2023-07-20T02:24:36;99013.06;;;20.51;44.85
6506;BME280;3286;49.858;8.768;2023-07-20T02:27:04;99009.34;;;20.52;44.87
6506;BME280;3286;49.858;8.768;2023-07-20T02:29:32;99010.19;;;20.72;44.71
6506;BME280;3286;49.858;8.768;2023-07-20T02:31:59;98998.75;;;20.58;44.95
6506;BME280;3286;49.858;8.768;2023-07-20T02:34:25;99013.59;;;20.41;45.31
6506;BME280;3286;49.858;8.768;2023-07-20T02:36:52;99011.25;;;20.70;44.46
6506;BME280;3286;49.858;8.768;2023-07-20T02:39:21;99001.03;;;20.61;44.23
6506;BME280;3286;49.858;8.768;2023-07-20T02:41:49;99003.50;;;20.37;45.70
6506;BME280;3286;49.858;8.768;2023-07-20T02:44:16;99004.31;;;20.63;44.76
6506;BME280;3286;49.858;8.768;2023-07-20T02:46:42;99008.78;;;20.18;45.53
6506;BME280;3286;49.858;8.768;2023-07-20T02:49:09;99012.50;;;20.17;46.02
6506;BME280;3286;49.858;8.768;2023-07-20T02:51:36;99015.19;;;20.17;45.71
6506;BME280;3286;49.858;8.768;2023-07-20T02:54:03;99017.72;;;20.12;46.21
6506;BME280;3286;49.858;8.768;2023-07-20T02:56:30;99017.72;;;20.37;45.44
6506;BME280;3286;49.858;8.768;2023-07-20T02:58:58;99016.56;;;20.01;46.07
6506;BME280;3286;49.858;8.768;2023-07-20T03:01:25;99019.53;;;20.18;45.27
6506;BME280;3286;49.858;8.768;2023-07-20T03:03:54;99017.72;;;20.12;45.35
6506;BME280;3286;49.858;8.768;2023-07-20T03:06:21;99012.44;;;19.98;45.51
6506;BME280;3286;49.858;8.768;2023-07-20T03:08:48;99017.19;;;20.29;45.02
6506;BME280;3286;49.858;8.768;2023-07-20T03:11:18;99016.75;;;20.06;45.44
6506;BME280;3286;49.858;8.768;2023-07-20T03:13:46;99020.56;;;20.17;45.60
6506;BME280;3286;49.858;8.768;2023-07-20T03:16:17;99018.16;;;20.09;45.92
6506;BME280;3286;49.858;8.768;2023-07-20T03:18:44;99024.22;;;19.97;45.64
6506;BME280;3286;49.858;8.768;2023-07-20T03:21:11;99018.38;;;19.68;45.94
6506;BME280;3286;49.858;8.768;2023-07-20T03:23:38;99021.91;;;19.62;46.36
6506;BME280;3286;49.858;8.768;2023-07-20T03:26:05;99023.81;;;19.94;45.68
6506;BME280;3286;49.858;8.768;2023-07-20T03:28:33;99023.25;;;19.85;45.33
6506;BME280;3286;49.858;8.768;2023-07-20T03:31:00;99016.19;;;19.52;46.31
6506;BME280;3286;49.858;8.768;2023-07-20T03:33:29;99022.09;;;19.67;45.94
6506;BME280;3286;49.858;8.768;2023-07-20T03:35:56;99029.78;;;19.57;46.56
6506;BME280;3286;49.858;8.768;2023-07-20T03:38:24;99029.66;;;19.38;46.65
6506;BME280;3286;49.858;8.768;2023-07-20T03:40:51;99027.19;;;19.37;46.34
6506;BME280;3286;49.858;8.768;2023-07-20T03:43:18;99028.91;;;19.11;46.90
6506;BME280;3286;49.858;8.768;2023-07-20T03:45:45;99037.94;;;19.23;46.96
6506;BME280;3286;49.858;8.768;2023-07-20T03:48:13;99034.50;;;18.89;47.91
6506;BME280;3286;49.858;8.768;2023-07-20T03:50:41;99024.66;;;19.49;46.70
6506;BME280;3286;49.858;8.768;2023-07-20T03:53:08;99027.16;;;19.44;47.23
6506;BME280;3286;49.858;8.768;2023-07-20T03:55:35;99029.63;;;19.45;47.07
6506;BME280;3286;49.858;8.768;2023-07-20T03:58:01;99030.13;;;19.67;45.88
6506;BME280;3286;49.858;8.768;2023-07-20T04:00:28;99027.25;;;19.69;45.42
6506;BME280;3286;49.858;8.768;2023-07-20T04:02:55;99028.66;;;19.26;46.82
6506;BME280;3286;49.858;8.768;2023-07-20T04:05:21;99026.97;;;19.38;46.24
6506;BME280;3286;49.858;8.768;2023-07-20T04:07:49;99035.75;;;19.00;47.06
6506;BME280;3286;49.858;8.768;2023-07-20T04:10:16;99025.28;;;19.51;45.84
6506;BME280;3286;49.858;8.768;2023-07-20T04:12:43;99029.09;;;19.68;46.10
6506;BME280;3286;49.858;8.768;2023-07-20T04:15:11;99025.69;;;19.87;45.48
6506;BME280;3286;49.858;8.768;2023-07-20T04:17:38;99029.63;;;19.45;46.14
6506;BME280;3286;49.858;8.768;2023-07-20T04:20:06;99030.44;;;19.91;45.56
6506;BME280;3286;49.858;8.768;2023-07-20T04:22:33;99022.03;;;19.35;46.17
6506;BME280;3286;49.858;8.768;2023-07-20T04:25:02;99034.00;;;19.78;45.95
6506;BME280;3286;49.858;8.768;2023-07-20T04:27:29;99026.56;;;19.42;45.96
6506;BME280;3286;49.858;8.768;2023-07-20T04:29:55;99022.41;;;19.46;46.43
6506;BME280;3286;49.858;8.768;2023-07-20T04:32:22;99034.25;;;19.18;47.00
6506;BME280;3286;49.858;8.768;2023-07-20T04:34:49;99027.28;;;19.62;45.73
6506;BME280;3286;49.858;8.768;2023-07-20T04:37:15;99033.50;;;19.56;46.67
6506;BME280;3286;49.858;8.768;2023-07-20T04:39:42;99038.59;;;19.12;47.13
6506;BME280;3286;49.858;8.768;2023-07-20T04:42:10;99042.09;;;19.06;47.31
6506;BME280;3286;49.858;8.768;2023-07-20T04:44:36;99048.69;;;19.10;47.51
6506;BME280;3286;49.858;8.768;2023-07-20T04:47:04;99046.66;;;18.99;48.14
6506;BME280;3286;49.858;8.768;2023-07-20T04:49:30;99055.91;;;19.03;47.46
6506;BME280;3286;49.858;8.768;2023-07-20T04:51:57;99048.00;;;19.28;47.09
6506;BME280;3286;49.858;8.768;2023-07-20T04:54:24;99045.50;;;19.47;46.85
6506;BME280;3286;49.858;8.768;2023-07-20T04:56:52;99044.91;;;19.77;46.14
6506;BME280;3286;49.858;8.768;2023-07-20T04:59:20;99051.34;;;19.17;47.50
6506;BME280;3286;49.858;8.768;2023-07-20T05:01:47;99050.81;;;18.61;48.27
6506;BME280;3286;49.858;8.768;2023-07-20T05:04:14;99050.84;;;19.40;46.77
6506;BME280;3286;49.858;8.768;2023-07-20T05:06:40;99054.28;;;18.61;48.53
6506;BME280;3286;49.858;8.768;2023-07-20T05:09:07;99052.56;;;18.00;50.25
6506;BME280;3286;49.858;8.768;2023-07-20T05:11:34;99049.75;;;18.28;49.32
6506;BME280;3286;49.858;8.768;2023-07-20T05:14:01;99054.91;;;18.43;49.20
6506;BME280;3286;49.858;8.768;2023-07-20T05:16:29;99056.13;;;18.67;49.18
6506;BME280;3286;49.858;8.768;2023-07-20T05:18:56;99047.84;;;19.68;46.32
6506;BME280;3286;49.858;8.768;2023-07-20T05:21:23;99043.31;;;19.69;46.35
6506;BME280;3286;49.858;8.768;2023-07-20T05:23:49;99044.03;;;19.96;45.81
6506;BME280;3286;49.858;8.768;2023-07-20T05:26:16;99040.47;;;19.64;46.59
6506;BME280;3286;49.858;8.768;2023-07-20T05:28:43;99044.28;;;19.43;47.44
6506;BME280;3286;49.858;8.768;2023-07-20T05:31:09;99045.25;;;19.94;46.39
6506;BME280;3286;49.858;8.768;2023-07-20T05:33:37;99051.00;;;18.59;49.05
6506;BME280;3286;49.858;8.768;2023-07-20T05:36:04;99056.56;;;18.78;49.14
6506;BME280;3286;49.858;8.768;2023-07-20T05:38:31;99059.13;;;19.32;47.31
6506;BME280;3286;49.858;8.768;2023-07-20T05:40:59;99057.25;;;17.91;50.31
6506;BME280;3286;49.858;8.768;2023-07-20T05:43:27;99049.53;;;19.63;47.60
6506;BME280;3286;49.858;8.768;2023-07-20T05:45:54;99053.28;;;20.01;46.22
6506;BME280;3286;49.858;8.768;2023-07-20T05:48:21;99059.97;;;19.25;47.49
6506;BME280;3286;49.858;8.768;2023-07-20T05:50:49;99061.50;;;18.81;48.94
6506;BME280;3286;49.858;8.768;2023-07-20T05:53:15;99058.41;;;19.57;46.98
6506;BME280;3286;49.858;8.768;2023-07-20T05:55:42;99072.38;;;19.00;47.79
6506;BME280;3286;49.858;8.768;2023-07-20T05:58:09;99062.94;;;19.63;47.42
6506;BME280;3286;49.858;8.768;2023-07-20T06:00:35;99066.34;;;19.90;46.36
6506;BME280;3286;49.858;8.768;2023-07-20T06:03:02;99071.25;;;19.34;47.66
6506;BME280;3286;49.858;8.768;2023-07-20T06:05:29;99074.28;;;20.04;45.86
6506;BME280;3286;49.858;8.768;2023-07-20T06:07:57;99071.81;;;20.34;44.74
6506;BME280;3286;49.858;8.768;2023-07-20T06:10:25;99084.53;;;18.35;50.03
6506;BME280;3286;49.858;8.768;2023-07-20T06:12:52;99082.56;;;19.43;47.81
6506;BME280;3286;49.858;8.768;2023-07-20T06:15:27;99069.22;;;20.21;45.53
6506;BME280;3286;49.858;8.768;2023-07-20T06:17:54;99073.50;;;20.61;45.01
6506;BME280;3286;49.858;8.768;2023-07-20T06:20:23;99077.88;;;20.55;46.78
6506;BME280;3286;49.858;8.768;2023-07-20T06:22:50;99071.56;;;20.93;44.98
6506;BME280;3286;49.858;8.768;2023-07-20T06:25:18;99082.38;;;19.38;47.12
6506;BME280;3286;49.858;8.768;2023-07-20T06:27:45;99083.97;;;20.37;46.13
6506;BME280;3286;49.858;8.768;2023-07-20T06:30:12;99079.13;;;21.03;44.96
6506;BME280;3286;49.858;8.768;2023-07-20T06:32:39;99084.75;;;20.44;46.03
6506;BME280;3286;49.858;8.768;2023-07-20T06:35:06;99085.31;;;20.21;45.52
6506;BME280;3286;49.858;8.768;2023-07-20T06:37:33;99086.75;;;20.23;45.62
6506;BME280;3286;49.858;8.768;2023-07-20T06:40:01;99087.44;;;20.12;46.60
6506;BME280;3286;49.858;8.768;2023-07-20T06:42:30;99088.63;;;20.48;45.82
6506;BME280;3286;49.858;8.768;2023-07-20T06:44:57;99081.41;;;20.99;44.94
6506;BME280;3286;49.858;8.768;2023-07-20T06:47:24;99086.63;;;20.44;46.02
6506;BME280;3286;49.858;8.768;2023-07-20T06:49:50;99092.97;;;20.75;44.73
6506;BME280;3286;49.858;8.768;2023-07-20T06:52:17;99082.22;;;21.00;44.97
6506;BME280;3286;49.858;8.768;2023-07-20T06:54:43;99101.00;;;20.81;45.44
6506;BME280;3286;49.858;8.768;2023-07-20T06:57:10;99098.28;;;21.07;44.10
6506;BME280;3286;49.858;8.768;2023-07-20T06:59:38;99097.38;;;21.13;44.00
6506;BME280;3286;49.858;8.768;2023-07-20T07:02:05;99095.91;;;21.17;43.97
6506;BME280;3286;49.858;8.768;2023-07-20T07:04:32;99092.94;;;21.44;43.76
6506;BME280;3286;49.858;8.768;2023-07-20T07:06:59;99091.94;;;21.01;44.46
6506;BME280;3286;49.858;8.768;2023-07-20T07:09:26;99102.00;;;20.87;45.00
6506;BME280;3286;49.858;8.768;2023-07-20T07:11:52;99101.72;;;21.14;43.98
6506;BME280;3286;49.858;8.768;2023-07-20T07:14:20;99104.34;;;21.02;44.13
6506;BME280;3286;49.858;8.768;2023-07-20T07:16:48;99103.63;;;21.51;44.07
6506;BME280;3286;49.858;8.768;2023-07-20T07:19:14;99103.47;;;21.46;43.63
6506;BME280;3286;49.858;8.768;2023-07-20T07:21:41;99102.78;;;21.32;43.68
6506;BME280;3286;49.858;8.768;2023-07-20T07:24:08;99115.63;;;20.86;44.39
6506;BME280;3286;49.858;8.768;2023-07-20T07:26:35;99110.25;;;21.30;45.25
6506;BME280;3286;49.858;8.768;2023-07-20T07:29:02;99110.94;;;21.44;43.77
6506;BME280;3286;49.858;8.768;2023-07-20T07:31:29;99107.34;;;21.68;44.30
6506;BME280;3286;49.858;8.768;2023-07-20T07:33:57;99112.88;;;21.74;44.34
6506;BME280;3286;49.858;8.768;2023-07-20T07:36:24;99110.41;;;21.72;43.72
6506;BME280;3286;49.858;8.768;2023-07-20T07:38:50;99108.00;;;21.82;43.82
6506;BME280;3286;49.858;8.768;2023-07-20T07:41:17;99108.53;;;21.91;43.30
6506;BME280;3286;49.858;8.768;2023-07-20T07:43:44;99104.41;;;21.89;43.10
6506;BME280;3286;49.858;8.768;2023-07-20T07:46:10;99110.63;;;21.89;43.41
6506;BME280;3286;49.858;8.768;2023-07-20T07:48:37;99104.22;;;22.33;42.04
6506;BME280;3286;49.858;8.768;2023-07-20T07:51:05;99105.13;;;22.57;42.32
6506;BME280;3286;49.858;8.768;2023-07-20T07:53:32;99108.41;;;22.59;41.48
6506;BME280;3286;49.858;8.768;2023-07-20T07:56:00;99118.25;;;23.01;41.00
6506;BME280;3286;49.858;8.768;2023-07-20T07:58:28;99108.78;;;22.32;42.18
6506;BME280;3286;49.858;8.768;2023-07-20T08:00:55;99111.88;;;22.05;42.06
6506;BME280;3286;49.858;8.768;2023-07-20T08:03:21;99115.78;;;22.52;42.34
6506;BME280;3286;49.858;8.768;2023-07-20T08:05:49;99117.88;;;22.50;41.60
6506;BME280;3286;49.858;8.768;2023-07-20T08:08:17;99119.06;;;22.90;41.30
6506;BME280;3286;49.858;8.768;2023-07-20T08:10:44;99105.38;;;23.39;40.64
6506;BME280;3286;49.858;8.768;2023-07-20T08:13:10;99102.09;;;23.49;39.13
6506;BME280;3286;49.858;8.768;2023-07-20T08:15:37;99101.13;;;24.25;37.70
6506;BME280;3286;49.858;8.768;2023-07-20T08:18:04;99104.88;;;23.54;38.98
6506;BME280;3286;49.858;8.768;2023-07-20T08:20:30;99104.31;;;24.39;37.88
6506;BME280;3286;49.858;8.768;2023-07-20T08:22:57;99109.53;;;23.99;38.61
6506;BME280;3286;49.858;8.768;2023-07-20T08:25:26;99106.13;;;24.50;37.68
6506;BME280;3286;49.858;8.768;2023-07-20T08:27:52;99106.94;;;24.68;37.11
6506;BME280;3286;49.858;8.768;2023-07-20T08:30:21;99089.97;;;25.24;35.98
6506;BME280;3286;49.858;8.768;2023-07-20T08:32:48;99096.53;;;25.50;35.95
6506;BME280;3286;49.858;8.768;2023-07-20T08:35:15;99096.81;;;24.58;37.47
6506;BME280;3286;49.858;8.768;2023-07-20T08:37:43;99092.16;;;25.27;35.74
6506;BME280;3286;49.858;8.768;2023-07-20T08:40:11;99102.53;;;23.86;39.07
6506;BME280;3286;49.858;8.768;2023-07-20T08:42:40;99102.03;;;24.65;37.51
6506;BME280;3286;49.858;8.768;2023-07-20T08:45:09;99105.25;;;22.74;39.25
6506;BME280;3286;49.858;8.768;2023-07-20T08:47:36;99102.91;;;22.78;40.80
6506;BME280;3286;49.858;8.768;2023-07-20T08:50:05;99091.91;;;24.55;36.94
6506;BME280;3286;49.858;8.768;2023-07-20T08:52:34;99092.13;;;24.36;36.37
6506;BME280;3286;49.858;8.768;2023-07-20T08:55:01;99091.31;;;24.87;37.05
6506;BME280;3286;49.858;8.768;2023-07-20T08:57:31;99098.34;;;23.02;38.99
6506;BME280;3286;49.858;8.768;2023-07-20T09:00:02;99101.97;;;22.60;39.62
6506;BME280;3286;49.858;8.768;2023-07-20T09:02:35;99097.59;;;24.07;37.90
6506;BME280;3286;49.858;8.768;2023-07-20T09:05:07;99099.50;;;24.41;37.41
6506;BME280;3286;49.858;8.768;2023-07-20T09:07:35;99095.09;;;24.69;36.18
6506;BME280;3286;49.858;8.768;2023-07-20T09:10:02;99092.34;;;25.20;35.26
6506;BME280;3286;49.858;8.768;2023-07-20T09:12:31;99091.22;;;26.10;33.74
6506;BME280;3286;49.858;8.768;2023-07-20T09:14:58;99087.69;;;25.15;34.67
6506;BME280;3286;49.858;8.768;2023-07-20T09:17:26;99088.16;;;25.74;33.55
6506;BME280;3286;49.858;8.768;2023-07-20T09:19:54;99083.44;;;25.42;33.99
6506;BME280;3286;49.858;8.768;2023-07-20T09:22:20;99082.56;;;24.97;34.48
6506;BME280;3286;49.858;8.768;2023-07-20T09:24:47;99080.91;;;25.35;33.68
6506;BME280;3286;49.858;8.768;2023-07-20T09:27:14;99084.78;;;25.22;34.23
6506;BME280;3286;49.858;8.768;2023-07-20T09:29:48;99084.59;;;25.07;35.24
6506;BME280;3286;49.858;8.768;2023-07-20T09:32:18;99082.41;;;26.20;33.42
6506;BME280;3286;49.858;8.768;2023-07-20T09:34:49;99082.81;;;26.72;31.81
6506;BME280;3286;49.858;8.768;2023-07-20T09:37:20;99078.91;;;24.69;35.11
6506;BME280;3286;49.858;8.768;2023-07-20T09:39:46;99078.41;;;24.38;35.80
6506;BME280;3286;49.858;8.768;2023-07-20T09:42:14;99072.91;;;25.45;33.52
6506;BME280;3286;49.858;8.768;2023-07-20T09:44:43;99077.00;;;25.93;32.76
6506;BME280;3286;49.858;8.768;2023-07-20T09:47:10;99074.69;;;26.72;31.04
6506;BME280;3286;49.858;8.768;2023-07-20T09:49:39;99076.66;;;27.88;28.97
6506;BME280;3286;49.858;8.768;2023-07-20T09:52:08;99073.81;;;26.28;31.33
6506;BME280;3286;49.858;8.768;2023-07-20T09:54:37;99074.25;;;25.21;32.83
6506;BME280;3286;49.858;8.768;2023-07-20T09:57:07;99076.31;;;26.08;33.18
6506;BME280;3286;49.858;8.768;2023-07-20T09:59:34;99070.34;;;25.11;33.09
6506;BME280;3286;49.858;8.768;2023-07-20T10:02:01;99083.66;;;23.86;34.69
6506;BME280;3286;49.858;8.768;2023-07-20T10:04:34;99070.19;;;24.67;34.87
6506;BME280;3286;49.858;8.768;2023-07-20T10:07:05;99074.75;;;25.40;34.53
6506;BME280;3286;49.858;8.768;2023-07-20T10:09:39;99068.25;;;25.58;34.30
6506;BME280;3286;49.858;8.768;2023-07-20T10:12:07;99066.16;;;25.93;33.89
6506;BME280;3286;49.858;8.768;2023-07-20T10:14:40;99058.59;;;25.95;33.52
6506;BME280;3286;49.858;8.768;2023-07-20T10:17:11;99056.50;;;26.02;33.87
6506;BME280;3286;49.858;8.768;2023-07-20T10:19:42;99047.50;;;26.56;33.17
6506;BME280;3286;49.858;8.768;2023-07-20T10:22:13;99053.13;;;25.17;33.40
6506;BME280;3286;49.858;8.768;2023-07-20T10:24:46;99040.16;;;26.89;31.03
6506;BME280;3286;49.858;8.768;2023-07-20T10:27:13;99036.94;;;26.93;31.04
6506;BME280;3286;49.858;8.768;2023-07-20T10:29:40;99044.00;;;26.56;31.26
6506;BME280;3286;49.858;8.768;2023-07-20T10:32:08;99037.69;;;24.96;33.24
6506;BME280;3286;49.858;8.768;2023-07-20T10:34:35;99036.78;;;25.74;31.20
6506;BME280;3286;49.858;8.768;2023-07-20T10:37:02;99029.31;;;26.84;30.06
6506;BME280;3286;49.858;8.768;2023-07-20T10:39:31;99029.50;;;27.31;29.58
6506;BME280;3286;49.858;8.768;2023-07-20T10:42:06;99031.75;;;26.91;29.05
6506;BME280;3286;49.858;8.768;2023-07-20T10:44:34;99023.31;;;27.41;28.66
6506;BME280;3286;49.858;8.768;2023-07-20T10:47:09;99021.94;;;27.38;28.82
6506;BME280;3286;49.858;8.768;2023-07-20T10:49:59;99017.72;;;27.89;29.21
6506;BME280;3286;49.858;8.768;2023-07-20T10:52:26;99030.59;;;26.82;29.92
6506;BME280;3286;49.858;8.768;2023-07-20T10:54:53;99019.38;;;27.00;30.33
6506;BME280;3286;49.858;8.768;2023-07-20T10:57:28;99015.81;;;27.64;27.84
6506;BME280;3286;49.858;8.768;2023-07-20T11:00:11;99013.81;;;27.43;28.60
6506;BME280;3286;49.858;8.768;2023-07-20T11:02:43;99012.38;;;27.15;30.06
6506;BME280;3286;49.858;8.768;2023-07-20T11:05:34;99013.22;;;27.21;30.03
6506;BME280;3286;49.858;8.768;2023-07-20T11:08:04;99014.09;;;25.80;30.14
6506;BME280;3286;49.858;8.768;2023-07-20T11:10:31;99014.00;;;25.25;31.87
6506;BME280;3286;49.858;8.768;2023-07-20T11:13:17;99013.13;;;25.92;31.93
6506;BME280;3286;49.858;8.768;2023-07-20T11:15:48;99012.88;;;26.64;30.89
6506;BME280;3286;49.858;8.768;2023-07-20T11:18:15;99015.19;;;26.12;30.54
6506;BME280;3286;49.858;8.768;2023-07-20T11:20:41;99007.31;;;27.39;30.25
6506;BME280;3286;49.858;8.768;2023-07-20T11:23:09;99002.22;;;27.64;30.33
6506;BME280;3286;49.858;8.768;2023-07-20T11:25:37;99004.75;;;28.22;27.18
6506;BME280;3286;49.858;8.768;2023-07-20T11:28:07;99000.69;;;28.19;27.12
6506;BME280;3286;49.858;8.768;2023-07-20T11:30:35;99000.09;;;28.64;27.62
6506;BME280;3286;49.858;8.768;2023-07-20T11:33:02;98993.66;;;29.71;27.27
6506;BME280;3286;49.858;8.768;2023-07-20T11:35:28;98999.25;;;28.63;26.16
6506;BME280;3286;49.858;8.768;2023-07-20T11:37:55;98996.53;;;28.69;27.84
6506;BME280;3286;49.858;8.768;2023-07-20T11:40:22;98994.84;;;28.99;27.64
6506;BME280;3286;49.858;8.768;2023-07-20T11:42:49;98992.41;;;28.97;26.81
6506;BME280;3286;49.858;8.768;2023-07-20T11:45:18;98993.06;;;27.75;28.61
6506;BME280;3286;49.858;8.768;2023-07-20T11:47:47;98997.09;;;27.93;29.38
6506;BME280;3286;49.858;8.768;2023-07-20T11:50:13;99000.78;;;27.30;29.18
6506;BME280;3286;49.858;8.768;2023-07-20T11:52:41;98999.88;;;26.66;30.70
6506;BME280;3286;49.858;8.768;2023-07-20T11:55:08;99003.13;;;27.11;28.98
6506;BME280;3286;49.858;8.768;2023-07-20T11:57:35;98996.09;;;26.67;29.84
6506;BME280;3286;49.858;8.768;2023-07-20T12:00:04;98988.06;;;27.41;29.47
6506;BME280;3286;49.858;8.768;2023-07-20T12:02:34;98977.28;;;27.61;29.06
6506;BME280;3286;49.858;8.768;2023-07-20T12:05:03;98989.94;;;27.45;30.38
6506;BME280;3286;49.858;8.768;2023-07-20T12:07:35;98981.59;;;27.52;29.16
6506;BME280;3286;49.858;8.768;2023-07-20T12:10:06;98972.16;;;28.32;28.33
6506;BME280;3286;49.858;8.768;2023-07-20T12:12:33;98967.16;;;27.31;29.79
6506;BME280;3286;49.858;8.768;2023-07-20T12:15:16;98974.50;;;26.77;28.94
6506;BME280;3286;49.858;8.768;2023-07-20T12:17:43;98977.06;;;26.51;28.88
6506;BME280;3286;49.858;8.768;2023-07-20T12:20:12;98966.56;;;26.60;29.92
6506;BME280;3286;49.858;8.768;2023-07-20T12:22:39;98969.31;;;25.95;30.96
6506;BME280;3286;49.858;8.768;2023-07-20T12:25:07;98971.63;;;25.31;31.88
6506;BME280;3286;49.858;8.768;2023-07-20T12:27:36;98975.59;;;25.01;32.20
6506;BME280;3286;49.858;8.768;2023-07-20T12:30:04;98977.31;;;25.52;31.55
6506;BME280;3286;49.858;8.768;2023-07-20T12:32:31;98976.88;;;26.25;31.27
6506;BME280;3286;49.858;8.768;2023-07-20T12:34:58;98977.28;;;26.12;31.58
6506;BME280;3286;49.858;8.768;2023-07-20T12:37:27;98967.13;;;25.92;31.12
6506;BME280;3286;49.858;8.768;2023-07-20T12:39:53;98974.03;;;26.10;30.10
6506;BME280;3286;49.858;8.768;2023-07-20T12:42:20;98968.03;;;26.40;30.02
6506;BME280;3286;49.858;8.768;2023-07-20T12:44:49;98973.69;;;26.76;29.05
6506;BME280;3286;49.858;8.768;2023-07-20T12:47:16;98980.06;;;26.17;30.81
6506;BME280;3286;49.858;8.768;2023-07-20T12:49:43;98973.53;;;26.51;30.21
6506;BME280;3286;49.858;8.768;2023-07-20T12:52:12;98966.53;;;25.84;32.41
6506;BME280;3286;49.858;8.768;2023-07-20T12:54:40;98965.66;;;26.44;31.46
6506;BME280;3286;49.858;8.768;2023-07-20T12:57:06;98959.72;;;26.95;30.42
6506;BME280;3286;49.858;8.768;2023-07-20T12:59:33;98957.06;;;27.11;30.29
6506;BME280;3286;49.858;8.768;2023-07-20T13:02:00;98956.53;;;27.24;28.14
6506;BME280;3286;49.858;8.768;2023-07-20T13:04:27;98955.97;;;25.33;30.80
6506;BME280;3286;49.858;8.768;2023-07-20T13:06:54;98952.91;;;26.07;29.67
6506;BME280;3286;49.858;8.768;2023-07-20T13:09:27;98943.28;;;27.33;28.53
6506;BME280;3286;49.858;8.768;2023-07-20T13:11:55;98940.34;;;28.48;26.76
6506;BME280;3286;49.858;8.768;2023-07-20T13:14:22;98938.38;;;26.56;30.43
6506;BME280;3286;49.858;8.768;2023-07-20T13:16:49;98935.91;;;27.08;28.54
6506;BME280;3286;49.858;8.768;2023-07-20T13:19:16;98939.03;;;28.15;28.50
6506;BME280;3286;49.858;8.768;2023-07-20T13:21:42;98919.38;;;28.65;25.70
6506;BME280;3286;49.858;8.768;2023-07-20T13:24:09;98931.41;;;27.91;26.87
6506;BME280;3286;49.858;8.768;2023-07-20T13:26:35;98921.88;;;29.22;26.96